createdAt,value
2016-01-07T00:00:43.141Z,-4.9
2016-01-07T00:01:43.080Z,-4.9
2016-01-07T00:02:43.037Z,-5
2016-01-07T00:03:42.962Z,-5
2016-01-07T00:04:42.902Z,-5
2016-01-07T00:05:42.842Z,-5
2016-01-07T00:06:42.783Z,-5
2016-01-07T00:07:42.722Z,-5
2016-01-07T00:08:42.678Z,-4.9
2016-01-07T00:09:42.587Z,-5
2016-01-07T00:10:42.527Z,-4.9
2016-01-07T00:11:42.468Z,-4.9
2016-01-07T00:12:42.423Z,-4.7
2016-01-07T00:13:42.380Z,-4.7
2016-01-07T00:14:42.272Z,-4.6
2016-01-07T00:15:42.210Z,-4.6
2016-01-07T00:16:42.243Z,-4.6
2016-01-07T00:17:42.090Z,-4.7
2016-01-07T00:18:42.015Z,-4.8
2016-01-07T00:19:41.971Z,-4.7
2016-01-07T00:20:41.926Z,-4.8
2016-01-07T00:21:41.992Z,-4.8
2016-01-07T00:22:41.791Z,-4.8
2016-01-07T00:23:41.731Z,-4.9
2016-01-07T00:24:41.657Z,-4.9
2016-01-07T00:25:41.596Z,-4.8
2016-01-07T00:26:41.537Z,-4.9
2016-01-07T00:27:41.461Z,-4.9
2016-01-07T00:28:41.401Z,-4.9
2016-01-07T00:29:41.403Z,-5
2016-01-07T00:30:41.281Z,-5
2016-01-07T00:31:41.222Z,-5
2016-01-07T00:32:41.177Z,-5
2016-01-07T00:33:41.086Z,-5
2016-01-07T00:34:41.042Z,-5
2016-01-07T00:35:40.967Z,-4.9
2016-01-07T00:36:40.923Z,-4.8
2016-01-07T00:37:40.925Z,-4.9
2016-01-07T00:38:40.789Z,-4.9
2016-01-07T00:39:40.728Z,-4.9
2016-01-07T00:40:40.669Z,-4.9
2016-01-07T00:41:40.609Z,-5
2016-01-07T00:42:40.580Z,-5
2016-01-07T00:43:40.472Z,-4.9
2016-01-07T00:44:40.414Z,-4.9
2016-01-07T00:45:40.369Z,-5
2016-01-07T00:46:40.294Z,-4.9
2016-01-07T00:47:40.233Z,-4.9
2016-01-07T00:48:40.174Z,-5
2016-01-07T00:49:40.099Z,-4.9
2016-01-07T00:50:40.086Z,-5
2016-01-07T00:51:39.980Z,-5
2016-01-07T00:52:39.919Z,-5
2016-01-07T00:53:39.922Z,-5
2016-01-07T00:54:39.832Z,-5
2016-01-07T00:55:39.725Z,-4.9
2016-01-07T00:56:39.790Z,-4.9
2016-01-07T00:57:39.605Z,-4.9
2016-01-07T00:58:39.529Z,-4.9
2016-01-07T00:59:39.548Z,-4.9
2016-01-07T01:00:39.425Z,-4.9
2016-01-07T01:01:39.428Z,-4.9
2016-01-07T01:02:39.306Z,-4.9
2016-01-07T01:03:39.345Z,-5
2016-01-07T01:04:39.160Z,-4.9
2016-01-07T01:05:39.101Z,-4.9
2016-01-07T01:06:39.040Z,-4.9
2016-01-07T01:07:38.965Z,-4.9
2016-01-07T01:08:38.967Z,-4.9
2016-01-07T01:09:38.845Z,-4.9
2016-01-07T01:10:38.800Z,-4.9
2016-01-07T01:11:38.725Z,-5
2016-01-07T01:12:38.681Z,-4.9
2016-01-07T01:13:38.606Z,-4.9
2016-01-07T01:14:38.547Z,-4.9
2016-01-07T01:15:38.611Z,-4.9
2016-01-07T01:16:38.411Z,-4.9
2016-01-07T01:17:38.352Z,-5
2016-01-07T01:18:38.292Z,-4.9
2016-01-07T01:19:38.233Z,-4.9
2016-01-07T01:20:38.235Z,-4.9
2016-01-07T01:22:12.925Z,-4.9
2016-01-07T01:22:38.053Z,-5
2016-01-07T01:23:37.993Z,-4.9
2016-01-07T01:24:37.917Z,-4.8
2016-01-07T01:25:37.873Z,-4.9
2016-01-07T01:26:37.830Z,-4.9
2016-01-07T01:27:37.738Z,-4.9
2016-01-07T01:28:37.678Z,-4.8
2016-01-07T01:29:37.618Z,-4.8
2016-01-07T01:30:37.543Z,-4.8
2016-01-07T01:31:37.499Z,-4.8
2016-01-07T01:32:37.438Z,-4.8
2016-01-07T01:33:37.363Z,-4.7
2016-01-07T01:34:37.335Z,-4.7
2016-01-07T01:35:37.243Z,-4.8
2016-01-07T01:36:37.184Z,-4.7
2016-01-07T01:37:37.124Z,-4.6
2016-01-07T01:38:37.049Z,-4.7
2016-01-07T01:39:37.145Z,-4.6
2016-01-07T01:40:36.929Z,-4.7
2016-01-07T01:41:36.870Z,-4.6
2016-01-07T01:42:36.825Z,-4.7
2016-01-07T01:43:36.750Z,-4.7
2016-01-07T01:44:36.690Z,-4.7
2016-01-07T01:45:36.631Z,-4.8
2016-01-07T01:46:36.570Z,-4.7
2016-01-07T01:47:36.511Z,-4.7
2016-01-07T01:48:36.467Z,-4.7
2016-01-07T01:49:36.375Z,-4.7
2016-01-07T01:50:36.316Z,-4.6
2016-01-07T01:51:36.239Z,-4.7
2016-01-07T01:52:36.197Z,-4.7
2016-01-07T01:53:36.137Z,-4.7
2016-01-07T01:54:36.061Z,-4.7
2016-01-07T01:55:36.000Z,-4.7
2016-01-07T01:56:35.957Z,-4.6
2016-01-07T01:57:35.881Z,-4.6
2016-01-07T01:58:35.821Z,-4.6
2016-01-07T01:59:35.746Z,-4.6
2016-01-07T02:00:35.686Z,-4.7
2016-01-07T02:01:35.736Z,-4.6
2016-01-07T02:02:35.590Z,-4.6
2016-01-07T02:03:35.530Z,-4.6
2016-01-07T02:04:35.502Z,-4.5
2016-01-07T02:05:35.396Z,-4.5
2016-01-07T02:06:35.413Z,-4.5
2016-01-07T02:07:35.338Z,-4.6
2016-01-07T02:08:35.231Z,-4.7
2016-01-07T02:09:35.156Z,-4.6
2016-01-07T02:10:35.096Z,-4.7
2016-01-07T02:11:35.021Z,-4.7
2016-01-07T02:12:34.961Z,-4.8
2016-01-07T02:13:34.901Z,-4.8
2016-01-07T02:14:34.841Z,-4.8
2016-01-07T02:15:34.844Z,-4.8
2016-01-07T02:16:34.707Z,-4.8
2016-01-07T02:17:34.646Z,-4.8
2016-01-07T02:18:34.587Z,-4.7
2016-01-07T02:19:34.542Z,-4.7
2016-01-07T02:20:34.482Z,-4.6
2016-01-07T02:21:34.407Z,-4.7
2016-01-07T02:22:34.347Z,-4.8
2016-01-07T02:23:34.288Z,-4.7
2016-01-07T02:24:34.212Z,-4.7
2016-01-07T02:25:34.184Z,-4.7
2016-01-07T02:26:34.139Z,-4.7
2016-01-07T02:27:34.030Z,-4.7
2016-01-07T02:28:34.001Z,-4.7
2016-01-07T02:29:33.926Z,-4.6
2016-01-07T02:30:33.851Z,-4.6
2016-01-07T02:31:33.792Z,-4.7
2016-01-07T02:32:33.731Z,-4.7
2016-01-07T02:33:33.672Z,-4.7
2016-01-07T02:34:33.611Z,-4.7
2016-01-07T02:35:33.536Z,-4.6
2016-01-07T02:36:33.539Z,-4.6
2016-01-07T02:37:33.448Z,-4.6
2016-01-07T02:38:33.372Z,-4.6
2016-01-07T02:39:33.313Z,-4.7
2016-01-07T02:40:33.238Z,-4.7
2016-01-07T02:41:33.177Z,-4.7
2016-01-07T02:42:33.102Z,-4.6
2016-01-07T02:43:33.057Z,-4.6
2016-01-07T02:44:32.999Z,-4.6
2016-01-07T02:45:32.969Z,-4.6
2016-01-07T02:46:32.879Z,-4.6
2016-01-07T02:47:32.818Z,-4.6
2016-01-07T02:48:32.743Z,-4.6
2016-01-07T02:49:32.683Z,-4.7
2016-01-07T02:50:32.640Z,-4.8
2016-01-07T02:51:32.556Z,-4.8
2016-01-07T02:52:32.501Z,-4.7
2016-01-07T02:53:32.442Z,-4.7
2016-01-07T02:54:32.387Z,-4.7
2016-01-07T02:55:32.342Z,-4.7
2016-01-07T02:56:32.251Z,-4.7
2016-01-07T02:57:32.192Z,-4.7
2016-01-07T02:58:32.148Z,-4.7
2016-01-07T02:59:32.072Z,-4.7
2016-01-07T03:00:32.028Z,-4.7
2016-01-07T03:01:31.953Z,-4.7
2016-01-07T03:02:31.877Z,-4.6
2016-01-07T03:03:31.832Z,-4.6
2016-01-07T03:04:31.756Z,-4.6
2016-01-07T03:05:31.696Z,-4.6
2016-01-07T03:06:31.652Z,-4.6
2016-01-07T03:07:31.577Z,-4.7
2016-01-07T03:08:31.518Z,-4.7
2016-01-07T03:09:31.535Z,-4.7
2016-01-07T03:10:31.398Z,-4.7
2016-01-07T03:11:31.322Z,-4.7
2016-01-07T03:12:31.262Z,-4.7
2016-01-07T03:13:31.204Z,-4.7
2016-01-07T03:14:31.143Z,-4.7
2016-01-07T03:15:31.098Z,-4.7
2016-01-07T03:16:31.023Z,-4.6
2016-01-07T03:17:30.979Z,-4.7
2016-01-07T03:18:30.904Z,-4.6
2016-01-07T03:19:30.844Z,-4.6
2016-01-07T03:20:30.785Z,-4.6
2016-01-07T03:21:30.709Z,-4.6
2016-01-07T03:22:30.696Z,-4.7
2016-01-07T03:23:30.683Z,-4.6
2016-01-07T03:24:30.514Z,-4.6
2016-01-07T03:25:30.564Z,-4.6
2016-01-07T03:26:30.409Z,-4.7
2016-01-07T03:27:30.351Z,-4.7
2016-01-07T03:28:30.447Z,-4.7
2016-01-07T03:29:30.231Z,-4.7
2016-01-07T03:30:30.155Z,-4.7
2016-01-07T03:31:30.189Z,-4.7
2016-01-07T03:32:30.050Z,-4.6
2016-01-07T03:33:29.976Z,-4.6
2016-01-07T03:34:30.103Z,-4.7
2016-01-07T03:35:29.841Z,-4.6
2016-01-07T03:36:29.780Z,-4.7
2016-01-07T03:37:29.784Z,-4.7
2016-01-07T03:38:29.692Z,-4.8
2016-01-07T03:39:29.663Z,-4.7
2016-01-07T03:40:29.541Z,-4.7
2016-01-07T03:41:29.482Z,-4.8
2016-01-07T03:42:29.407Z,-4.7
2016-01-07T03:43:29.363Z,-4.8
2016-01-07T03:44:29.302Z,-4.7
2016-01-07T03:45:29.243Z,-4.7
2016-01-07T03:46:29.168Z,-4.7
2016-01-07T03:47:29.107Z,-4.7
2016-01-07T03:48:29.063Z,-4.7
2016-01-07T03:49:28.988Z,-4.7
2016-01-07T03:50:28.929Z,-4.7
2016-01-07T03:51:28.868Z,-4.6
2016-01-07T03:52:28.793Z,-4.6
2016-01-07T03:53:28.732Z,-4.7
2016-01-07T03:54:28.674Z,-4.7
2016-01-07T03:55:28.660Z,-4.6
2016-01-07T03:56:28.554Z,-4.7
2016-01-07T03:57:28.493Z,-4.8
2016-01-07T03:58:28.418Z,-4.7
2016-01-07T03:59:28.374Z,-4.7
2016-01-07T04:00:28.314Z,-4.7
2016-01-07T04:01:28.240Z,-4.8
2016-01-07T04:02:28.179Z,-4.8
2016-01-07T04:03:28.151Z,-4.7
2016-01-07T04:04:28.107Z,-4.8
2016-01-07T04:05:28.000Z,-4.8
2016-01-07T04:06:27.924Z,-4.8
2016-01-07T04:07:27.881Z,-4.7
2016-01-07T04:08:27.821Z,-4.7
2016-01-07T04:09:27.808Z,-4.7
2016-01-07T04:10:27.686Z,-4.7
2016-01-07T04:11:27.626Z,-4.7
2016-01-07T04:12:27.566Z,-4.7
2016-01-07T04:13:27.506Z,-4.7
2016-01-07T04:14:27.446Z,-4.7
2016-01-07T04:15:27.386Z,-4.7
2016-01-07T04:16:27.327Z,-4.7
2016-01-07T04:17:27.252Z,-4.7
2016-01-07T04:18:27.207Z,-4.7
2016-01-07T04:19:27.129Z,-4.7
2016-01-07T04:20:27.069Z,-4.7
2016-01-07T04:21:27.010Z,-4.7
2016-01-07T04:22:26.933Z,-4.7
2016-01-07T04:23:26.889Z,-4.8
2016-01-07T04:24:26.830Z,-4.8
2016-01-07T04:25:26.754Z,-4.7
2016-01-07T04:26:26.694Z,-4.8
2016-01-07T04:27:26.665Z,-4.8
2016-01-07T04:28:26.606Z,-4.8
2016-01-07T04:29:26.516Z,-4.8
2016-01-07T04:30:26.439Z,-4.9
2016-01-07T04:31:26.443Z,-4.9
2016-01-07T04:32:26.320Z,-4.8
2016-01-07T04:33:26.260Z,-4.8
2016-01-07T04:34:26.200Z,-4.8
2016-01-07T04:35:26.125Z,-4.8
2016-01-07T04:36:26.129Z,-4.8
2016-01-07T04:37:26.006Z,-4.8
2016-01-07T04:38:25.946Z,-4.9
2016-01-07T04:39:25.886Z,-4.9
2016-01-07T04:40:25.826Z,-4.9
2016-01-07T04:41:25.751Z,-4.9
2016-01-07T04:42:25.706Z,-4.9
2016-01-07T04:43:25.631Z,-4.9
2016-01-07T04:44:25.586Z,-4.9
2016-01-07T04:45:25.542Z,-4.9
2016-01-07T04:46:25.452Z,-5
2016-01-07T04:47:25.376Z,-5
2016-01-07T04:48:25.333Z,-5
2016-01-07T04:49:25.289Z,-5
2016-01-07T04:50:25.228Z,-5
2016-01-07T04:51:25.153Z,-5
2016-01-07T04:52:25.077Z,-4.9
2016-01-07T04:53:25.018Z,-4.9
2016-01-07T04:54:24.958Z,-4.9
2016-01-07T04:55:24.930Z,-4.9
2016-01-07T04:56:24.822Z,-4.9
2016-01-07T04:57:24.763Z,-4.8
2016-01-07T04:58:24.703Z,-4.8
2016-01-07T04:59:24.644Z,-4.8
2016-01-07T05:00:24.615Z,-4.8
2016-01-07T05:01:24.524Z,-4.8
2016-01-07T05:02:24.449Z,-4.9
2016-01-07T05:03:24.405Z,-4.9
2016-01-07T05:04:24.329Z,-4.8
2016-01-07T05:05:24.269Z,-4.8
2016-01-07T05:06:24.194Z,-4.8
2016-01-07T05:07:24.149Z,-4.7
2016-01-07T05:08:24.074Z,-4.7
2016-01-07T05:09:24.014Z,-4.8
2016-01-07T05:10:23.954Z,-4.8
2016-01-07T05:11:23.895Z,-4.8
2016-01-07T05:12:23.835Z,-4.8
2016-01-07T05:13:23.759Z,-4.8
2016-01-07T05:14:23.699Z,-4.8
2016-01-07T05:15:23.670Z,-4.7
2016-01-07T05:16:23.580Z,-4.7
2016-01-07T05:17:23.582Z,-4.7
2016-01-07T05:18:23.460Z,-4.8
2016-01-07T05:19:23.401Z,-4.8
2016-01-07T05:20:23.340Z,-4.8
2016-01-07T05:21:23.281Z,-4.8
2016-01-07T05:22:23.206Z,-4.8
2016-01-07T05:23:23.130Z,-4.8
2016-01-07T05:24:23.086Z,-4.8
2016-01-07T05:25:23.057Z,-4.8
2016-01-07T05:26:22.981Z,-4.8
2016-01-07T05:27:22.891Z,-4.8
2016-01-07T05:28:22.862Z,-4.8
2016-01-07T05:29:22.771Z,-4.8
2016-01-07T05:30:22.743Z,-4.8
2016-01-07T05:31:22.683Z,-4.8
2016-01-07T05:32:22.591Z,-4.8
2016-01-07T05:33:22.533Z,-4.9
2016-01-07T05:34:22.458Z,-4.9
2016-01-07T05:35:22.397Z,-4.9
2016-01-07T05:36:22.337Z,-4.9
2016-01-07T05:37:22.261Z,-5
2016-01-07T05:38:22.202Z,-4.9
2016-01-07T05:39:22.158Z,-4.9
2016-01-07T05:40:22.082Z,-4.9
2016-01-07T05:41:22.022Z,-4.9
2016-01-07T05:42:21.963Z,-4.8
2016-01-07T05:43:21.903Z,-4.9
2016-01-07T05:44:21.843Z,-4.8
2016-01-07T05:45:21.783Z,-4.9
2016-01-07T05:46:21.770Z,-4.8
2016-01-07T05:47:21.710Z,-4.9
2016-01-07T05:48:21.588Z,-4.8
2016-01-07T05:49:21.560Z,-4.8
2016-01-07T05:50:21.468Z,-4.7
2016-01-07T05:51:21.409Z,-4.7
2016-01-07T05:52:21.380Z,-4.7
2016-01-07T05:53:21.290Z,-4.7
2016-01-07T05:54:21.230Z,-4.6
2016-01-07T05:55:21.171Z,-4.6
2016-01-07T05:56:21.095Z,-4.6
2016-01-07T05:57:21.098Z,-4.7
2016-01-07T05:58:20.976Z,-4.6
2016-01-07T05:59:20.931Z,-4.7
2016-01-07T06:00:20.871Z,-4.7
2016-01-07T06:01:20.795Z,-4.6
2016-01-07T06:02:20.731Z,-4.6
2016-01-07T06:03:20.671Z,-4.6
2016-01-07T06:04:20.612Z,-4.7
2016-01-07T06:05:20.584Z,-4.7
2016-01-07T06:06:20.507Z,-4.7
2016-01-07T06:07:20.417Z,-4.7
2016-01-07T06:08:20.419Z,-4.6
2016-01-07T06:09:20.294Z,-4.6
2016-01-07T06:10:20.234Z,-4.6
2016-01-07T06:11:20.180Z,-4.6
2016-01-07T06:12:20.104Z,-4.6
2016-01-07T06:13:20.044Z,-4.7
2016-01-07T06:14:20.000Z,-4.7
2016-01-07T06:15:19.924Z,-4.7
2016-01-07T06:16:19.896Z,-4.6
2016-01-07T06:17:19.821Z,-4.7
2016-01-07T06:18:19.744Z,-4.7
2016-01-07T06:19:19.685Z,-4.7
2016-01-07T06:20:19.641Z,-4.7
2016-01-07T06:21:19.565Z,-4.7
2016-01-07T06:22:19.491Z,-4.6
2016-01-07T06:23:19.430Z,-4.6
2016-01-07T06:24:19.371Z,-4.5
2016-01-07T06:25:19.311Z,-4.5
2016-01-07T06:26:19.266Z,-4.5
2016-01-07T06:27:19.207Z,-4.5
2016-01-07T06:28:19.241Z,-4.5
2016-01-07T06:29:19.072Z,-4.6
2016-01-07T06:30:19.044Z,-4.6
2016-01-07T06:31:18.952Z,-4.6
2016-01-07T06:32:18.893Z,-4.5
2016-01-07T06:33:18.832Z,-4.5
2016-01-07T06:34:18.757Z,-4.6
2016-01-07T06:35:18.729Z,-4.6
2016-01-07T06:36:18.700Z,-4.6
2016-01-07T06:37:18.578Z,-4.5
2016-01-07T06:38:18.549Z,-4.5
2016-01-07T06:39:18.458Z,-4.5
2016-01-07T06:40:18.430Z,-4.5
2016-01-07T06:41:24.792Z,-4.5
2016-01-07T06:42:18.295Z,-4.5
2016-01-07T06:43:18.203Z,-4.5
2016-01-07T06:44:18.175Z,-4.5
2016-01-07T06:45:18.083Z,-4.6
2016-01-07T06:46:18.024Z,-4.6
2016-01-07T06:47:17.964Z,-4.5
2016-01-07T06:48:17.920Z,-4.5
2016-01-07T06:49:17.938Z,-4.4
2016-01-07T06:50:17.800Z,-4.5
2016-01-07T06:51:17.741Z,-4.5
2016-01-07T06:52:17.681Z,-4.5
2016-01-07T06:53:17.605Z,-4.5
2016-01-07T06:54:17.546Z,-4.6
2016-01-07T06:55:17.486Z,-4.5
2016-01-07T06:56:17.411Z,-4.5
2016-01-07T06:57:17.382Z,-4.6
2016-01-07T06:58:17.307Z,-4.6
2016-01-07T06:59:17.230Z,-4.6
2016-01-07T07:00:17.171Z,-4.6
2016-01-07T07:01:17.111Z,-4.6
2016-01-07T07:02:17.067Z,-4.6
2016-01-07T07:03:17.024Z,-4.6
2016-01-07T07:04:16.916Z,-4.6
2016-01-07T07:05:16.982Z,-4.6
2016-01-07T07:06:16.812Z,-4.5
2016-01-07T07:07:16.737Z,-4.6
2016-01-07T07:08:16.693Z,-4.6
2016-01-07T07:09:16.632Z,-4.6
2016-01-07T07:10:16.620Z,-4.5
2016-01-07T07:11:16.529Z,-4.5
2016-01-07T07:12:16.438Z,-4.5
2016-01-07T07:13:16.394Z,-4.6
2016-01-07T07:14:16.303Z,-4.6
2016-01-07T07:15:16.243Z,-4.6
2016-01-07T07:16:16.214Z,-4.6
2016-01-07T07:17:16.140Z,-4.6
2016-01-07T07:18:16.173Z,-4.6
2016-01-07T07:19:16.035Z,-4.6
2016-01-07T07:20:15.945Z,-4.6
2016-01-07T07:21:15.884Z,-4.6
2016-01-07T07:22:15.825Z,-4.7
2016-01-07T07:23:15.750Z,-4.6
2016-01-07T07:24:15.720Z,-4.5
2016-01-07T07:25:15.630Z,-4.5
2016-01-07T07:26:15.586Z,-4.5
2016-01-07T07:27:15.510Z,-4.5
2016-01-07T07:28:15.450Z,-4.5
2016-01-07T07:29:15.405Z,-4.5
2016-01-07T07:30:15.330Z,-4.6
2016-01-07T07:31:15.255Z,-4.6
2016-01-07T07:32:15.227Z,-4.5
2016-01-07T07:33:15.152Z,-4.5
2016-01-07T07:34:15.075Z,-4.5
2016-01-07T07:35:15.141Z,-4.4
2016-01-07T07:36:14.972Z,-4.5
2016-01-07T07:37:14.897Z,-4.5
2016-01-07T07:38:14.852Z,-4.5
2016-01-07T07:39:14.777Z,-4.5
2016-01-07T07:40:14.748Z,-4.5
2016-01-07T07:41:14.673Z,-4.5
2016-01-07T07:42:14.597Z,-4.5
2016-01-07T07:43:14.522Z,-4.5
2016-01-07T07:44:14.462Z,-4.5
2016-01-07T07:45:14.480Z,-4.5
2016-01-07T07:46:14.330Z,-4.5
2016-01-07T07:47:14.285Z,-4.5
2016-01-07T07:48:14.226Z,-4.6
2016-01-07T07:49:14.151Z,-4.6
2016-01-07T07:50:14.090Z,-4.6
2016-01-07T07:51:14.031Z,-4.5
2016-01-07T07:52:13.971Z,-4.5
2016-01-07T07:53:14.020Z,-4.5
2016-01-07T07:54:13.852Z,-4.5
2016-01-07T07:55:13.776Z,-4.6
2016-01-07T07:56:13.732Z,-4.5
2016-01-07T07:57:13.657Z,-4.4
2016-01-07T07:58:13.612Z,-4.5
2016-01-07T07:59:13.584Z,-4.5
2016-01-07T08:00:13.524Z,-4.6
2016-01-07T08:01:13.448Z,-4.6
2016-01-07T08:02:14.139Z,-4.5
2016-01-07T08:03:13.329Z,-4.6
2016-01-07T08:04:13.253Z,-4.5
2016-01-07T08:05:13.225Z,-4.6
2016-01-07T08:06:13.118Z,-4.5
2016-01-07T08:07:13.058Z,-4.5
2016-01-07T08:08:12.998Z,-4.5
2016-01-07T08:09:13.142Z,-4.4
2016-01-07T08:10:13.254Z,-4.4
2016-01-07T08:11:12.804Z,-4.4
2016-01-07T08:12:12.744Z,-4.4
2016-01-07T08:13:12.700Z,-4.4
2016-01-07T08:14:12.765Z,-4.4
2016-01-07T08:15:12.549Z,-4.5
2016-01-07T08:16:12.505Z,-4.5
2016-01-07T08:17:12.477Z,-4.5
2016-01-07T08:18:12.386Z,-4.5
2016-01-07T08:19:12.310Z,-4.5
2016-01-07T08:20:12.232Z,-4.5
2016-01-07T08:21:12.172Z,-4.5
2016-01-07T08:22:12.128Z,-4.5
2016-01-07T08:23:12.068Z,-4.5
2016-01-07T08:24:12.008Z,-4.4
2016-01-07T08:25:11.933Z,-4.4
2016-01-07T08:26:11.874Z,-4.4
2016-01-07T08:27:11.797Z,-4.4
2016-01-07T08:28:11.769Z,-4.3
2016-01-07T08:29:11.693Z,-4.3
2016-01-07T08:30:11.634Z,-4.4
2016-01-07T08:31:11.590Z,-4.4
2016-01-07T08:32:11.514Z,-4.4
2016-01-07T08:33:11.438Z,-4.4
2016-01-07T08:34:11.363Z,-4.3
2016-01-07T08:35:11.335Z,-4.3
2016-01-07T08:36:11.260Z,-4.4
2016-01-07T08:37:11.184Z,-4.3
2016-01-07T08:38:11.124Z,-4.4
2016-01-07T08:39:11.065Z,-4.5
2016-01-07T08:40:11.082Z,-4.5
2016-01-07T08:41:10.946Z,-4.4
2016-01-07T08:42:10.885Z,-4.4
2016-01-07T08:43:11.295Z,-4.4
2016-01-07T08:44:10.750Z,-4.4
2016-01-07T08:45:10.685Z,-4.4
2016-01-07T08:46:10.613Z,-4.3
2016-01-07T08:47:10.540Z,-4.3
2016-01-07T08:48:10.468Z,-4.3
2016-01-07T08:49:10.396Z,-4.3
2016-01-07T08:50:10.328Z,-4.3
2016-01-07T08:51:10.249Z,-4.3
2016-01-07T08:52:10.200Z,-4.4
2016-01-07T08:53:10.151Z,-4.4
2016-01-07T08:54:10.072Z,-4.4
2016-01-07T08:55:09.994Z,-4.4
2016-01-07T08:56:09.963Z,-4.4
2016-01-07T08:57:09.871Z,-4.3
2016-01-07T08:58:09.809Z,-4.3
2016-01-07T08:59:09.748Z,-4.3
2016-01-07T09:00:09.687Z,-4.3
2016-01-07T09:01:09.627Z,-4.3
2016-01-07T09:02:09.612Z,-4.3
2016-01-07T09:03:09.489Z,-4.3
2016-01-07T09:05:09.369Z,-4.4
2016-01-07T09:06:09.294Z,-4.3
2016-01-07T09:07:09.250Z,-4.3
2016-01-07T09:08:09.189Z,-4.3
2016-01-07T09:09:09.114Z,-4.3
2016-01-07T09:10:09.055Z,-4.3
2016-01-07T09:11:08.994Z,-4.3
2016-01-07T09:12:08.935Z,-4.4
2016-01-07T09:13:08.860Z,-4.3
2016-01-07T09:14:08.800Z,-4.4
2016-01-07T09:15:08.740Z,-4.4
2016-01-07T09:16:08.680Z,-4.3
2016-01-07T09:17:08.605Z,-4.2
2016-01-07T09:18:08.560Z,-4.2
2016-01-07T09:19:08.485Z,-4.1
2016-01-07T09:20:08.426Z,-4.1
2016-01-07T09:21:08.381Z,-4.1
2016-01-07T09:22:08.307Z,-4.1
2016-01-07T09:23:08.246Z,-4
2016-01-07T09:24:08.218Z,-4
2016-01-07T09:25:08.126Z,-4
2016-01-07T09:26:08.067Z,-4
2016-01-07T09:27:08.007Z,-4.1
2016-01-07T09:28:07.931Z,-4.1
2016-01-07T09:29:07.918Z,-4
2016-01-07T09:30:07.812Z,-4
2016-01-07T09:31:07.751Z,-4.1
2016-01-07T09:32:07.708Z,-4
2016-01-07T09:33:07.632Z,-4
2016-01-07T09:34:07.589Z,-4
2016-01-07T09:35:07.528Z,-4.1
2016-01-07T09:36:07.453Z,-4
2016-01-07T09:37:07.392Z,-4.1
2016-01-07T09:38:07.333Z,-4.1
2016-01-07T09:39:07.273Z,-4
2016-01-07T09:40:07.244Z,-4
2016-01-07T09:41:07.138Z,-4
2016-01-07T09:42:07.078Z,-4.1
2016-01-07T09:43:07.081Z,-4.1
2016-01-07T09:44:06.959Z,-4.1
2016-01-07T09:45:06.899Z,-4.1
2016-01-07T09:46:06.838Z,-4.1
2016-01-07T09:47:06.763Z,-4.1
2016-01-07T09:48:06.736Z,-4.1
2016-01-07T09:49:06.644Z,-4
2016-01-07T09:50:06.599Z,-3.9
2016-01-07T09:51:06.540Z,-3.9
2016-01-07T09:52:06.449Z,-3.8
2016-01-07T09:53:06.405Z,-3.8
2016-01-07T09:54:06.346Z,-3.7
2016-01-07T09:55:06.270Z,-3.7
2016-01-07T09:56:06.226Z,-3.6
2016-01-07T09:57:06.165Z,-3.7
2016-01-07T09:58:06.090Z,-3.7
2016-01-07T09:59:06.062Z,-3.7
2016-01-07T10:00:05.987Z,-3.8
2016-01-07T10:01:05.911Z,-3.7
2016-01-07T10:02:05.835Z,-3.7
2016-01-07T10:03:05.792Z,-3.7
2016-01-07T10:04:05.748Z,-3.9
2016-01-07T10:05:05.656Z,-3.9
2016-01-07T10:06:05.596Z,-3.9
2016-01-07T10:07:05.553Z,-3.8
2016-01-07T10:08:05.477Z,-3.8
2016-01-07T10:09:05.418Z,-3.8
2016-01-07T10:10:05.373Z,-3.8
2016-01-07T10:11:05.297Z,-3.8
2016-01-07T10:12:05.237Z,-3.7
2016-01-07T10:13:05.178Z,-3.7
2016-01-07T10:14:05.103Z,-3.7
2016-01-07T10:15:05.058Z,-3.6
2016-01-07T10:16:04.998Z,-3.7
2016-01-07T10:17:04.923Z,-3.7
2016-01-07T10:18:04.879Z,-3.7
2016-01-07T10:19:04.803Z,-3.7
2016-01-07T10:20:04.806Z,-3.7
2016-01-07T10:21:04.668Z,-3.8
2016-01-07T10:22:04.608Z,-3.7
2016-01-07T10:23:04.596Z,-3.7
2016-01-07T10:24:04.505Z,-3.7
2016-01-07T10:25:04.429Z,-3.7
2016-01-07T10:26:04.400Z,-3.6
2016-01-07T10:27:04.310Z,-3.6
2016-01-07T10:28:04.250Z,-3.6
2016-01-07T10:29:04.268Z,-3.7
2016-01-07T10:30:04.130Z,-3.8
2016-01-07T10:31:04.101Z,-3.8
2016-01-07T10:32:04.038Z,-3.8
2016-01-07T10:33:03.932Z,-3.8
2016-01-07T10:34:03.873Z,-3.7
2016-01-07T10:35:03.813Z,-3.7
2016-01-07T10:36:03.754Z,-3.7
2016-01-07T10:37:03.709Z,-3.7
2016-01-07T10:38:03.618Z,-3.8
2016-01-07T10:39:03.574Z,-3.8
2016-01-07T10:40:03.514Z,-3.8
2016-01-07T10:41:03.438Z,-3.8
2016-01-07T10:42:03.395Z,-3.8
2016-01-07T10:43:03.350Z,-3.7
2016-01-07T10:44:03.259Z,-3.8
2016-01-07T10:45:03.199Z,-3.8
2016-01-07T10:46:03.139Z,-3.7
2016-01-07T10:47:03.079Z,-3.6
2016-01-07T10:48:03.004Z,-3.6
2016-01-07T10:49:02.960Z,-3.6
2016-01-07T10:50:02.916Z,-3.5
2016-01-07T10:51:02.872Z,-3.5
2016-01-07T10:52:02.781Z,-3.5
2016-01-07T10:53:02.721Z,-3.5
2016-01-07T10:54:02.645Z,-3.6
2016-01-07T10:55:02.585Z,-3.6
2016-01-07T10:56:02.526Z,-3.6
2016-01-07T10:57:02.466Z,-3.6
2016-01-07T10:58:02.406Z,-3.6
2016-01-07T10:59:02.440Z,-3.6
2016-01-07T11:00:17.633Z,-3.6
2016-01-07T11:01:02.258Z,-3.6
2016-01-07T11:02:02.183Z,-3.5
2016-01-07T11:03:02.108Z,-3.4
2016-01-07T11:04:02.063Z,-3.5
2016-01-07T11:05:01.988Z,-3.5
2016-01-07T11:06:01.927Z,-3.4
2016-01-07T11:07:01.868Z,-3.5
2016-01-07T11:08:01.808Z,-3.5
2016-01-07T11:09:01.748Z,-3.5
2016-01-07T11:10:01.674Z,-3.5
2016-01-07T11:11:01.613Z,-3.6
2016-01-07T11:12:01.569Z,-3.6
2016-01-07T11:13:01.493Z,-3.6
2016-01-07T11:14:01.435Z,-3.6
2016-01-07T11:15:01.374Z,-3.7
2016-01-07T11:16:01.314Z,-3.6
2016-01-07T11:17:01.255Z,-3.7
2016-01-07T11:18:01.179Z,-3.7
2016-01-07T11:19:01.135Z,-3.6
2016-01-07T11:20:01.090Z,-3.7
2016-01-07T11:21:01.046Z,-3.7
2016-01-07T11:22:00.940Z,-3.6
2016-01-07T11:23:00.911Z,-3.7
2016-01-07T11:24:00.820Z,-3.6
2016-01-07T11:25:00.761Z,-3.6
2016-01-07T11:26:00.685Z,-3.7
2016-01-07T11:27:00.641Z,-3.6
2016-01-07T11:28:00.582Z,-3.6
2016-01-07T11:29:00.506Z,-3.6
2016-01-07T11:30:00.462Z,-3.6
2016-01-07T11:31:00.417Z,-3.6
2016-01-07T11:32:00.326Z,-3.6
2016-01-07T11:33:00.251Z,-3.6
2016-01-07T11:34:00.206Z,-3.5
2016-01-07T11:35:00.131Z,-3.6
2016-01-07T11:36:00.072Z,-3.6
2016-01-07T11:37:00.012Z,-3.7
2016-01-07T11:37:59.952Z,-3.7
2016-01-07T11:38:59.892Z,-3.7
2016-01-07T11:39:59.833Z,-3.6
2016-01-07T11:40:59.772Z,-3.6
2016-01-07T11:41:59.744Z,-3.6
2016-01-07T11:42:59.652Z,-3.5
2016-01-07T11:43:59.593Z,-3.5
2016-01-07T11:44:59.518Z,-3.5
2016-01-07T11:45:59.458Z,-3.5
2016-01-07T11:46:59.413Z,-3.5
2016-01-07T11:47:59.354Z,-3.5
2016-01-07T11:48:59.279Z,-3.5
2016-01-07T11:49:59.218Z,-3.6
2016-01-07T11:50:59.159Z,-3.6
2016-01-07T11:51:59.099Z,-3.5
2016-01-07T11:52:59.102Z,-3.5
2016-01-07T11:53:58.980Z,-3.5
2016-01-07T11:54:58.920Z,-3.4
2016-01-07T11:55:58.860Z,-3.4
2016-01-07T11:56:58.785Z,-3.4
2016-01-07T11:57:58.771Z,-3.4
2016-01-07T11:58:58.681Z,-3.5
2016-01-07T11:59:58.621Z,-3.5
2016-01-07T12:00:58.546Z,-3.4
2016-01-07T12:01:58.486Z,-3.5
2016-01-07T12:02:58.410Z,-3.4
2016-01-07T12:03:58.367Z,-3.5
2016-01-07T12:04:58.306Z,-3.4
2016-01-07T12:05:58.231Z,-3.4
2016-01-07T12:06:58.187Z,-3.4
2016-01-07T12:07:58.111Z,-3.5
2016-01-07T12:08:58.084Z,-3.4
2016-01-07T12:09:58.008Z,-3.4
2016-01-07T12:10:57.932Z,-3.4
2016-01-07T12:11:57.872Z,-3.4
2016-01-07T12:12:57.812Z,-3.4
2016-01-07T12:13:57.753Z,-3.3
2016-01-07T12:14:57.677Z,-3.3
2016-01-07T12:15:57.633Z,-3.2
2016-01-07T12:16:57.558Z,-3.2
2016-01-07T12:17:57.514Z,-3.2
2016-01-07T12:18:57.439Z,-3.3
2016-01-07T12:19:57.410Z,-3.2
2016-01-07T12:20:57.318Z,-3.2
2016-01-07T12:21:57.258Z,-3.1
2016-01-07T12:22:57.261Z,-3.2
2016-01-07T12:23:57.138Z,-3.1
2016-01-07T12:24:57.095Z,-3.1
2016-01-07T12:25:57.019Z,-3.1
2016-01-07T12:26:56.960Z,-3.1
2016-01-07T12:27:56.932Z,-3.1
2016-01-07T12:28:56.840Z,-3.1
2016-01-07T12:29:56.780Z,-3.2
2016-01-07T12:30:56.721Z,-3.2
2016-01-07T12:31:56.645Z,-3.2
2016-01-07T12:32:56.585Z,-3.2
2016-01-07T12:33:56.526Z,-3.2
2016-01-07T12:34:56.465Z,-3.2
2016-01-07T12:35:56.421Z,-3.2
2016-01-07T12:36:56.346Z,-3.2
2016-01-07T12:37:56.270Z,-3.2
2016-01-07T12:38:56.211Z,-3.2
2016-01-07T12:39:56.151Z,-3.2
2016-01-07T12:40:56.091Z,-3.2
2016-01-07T12:41:56.031Z,-3.2
2016-01-07T12:42:55.972Z,-3.1
2016-01-07T12:43:55.928Z,-3.1
2016-01-07T12:44:55.868Z,-3.2
2016-01-07T12:45:55.792Z,-3.1
2016-01-07T12:46:55.730Z,-3.1
2016-01-07T12:47:55.654Z,-3.1
2016-01-07T12:48:55.594Z,-3.1
2016-01-07T12:49:55.551Z,-3.1
2016-01-07T12:50:55.475Z,-3
2016-01-07T12:51:55.415Z,-3
2016-01-07T12:52:55.356Z,-3
2016-01-07T12:53:55.295Z,-2.9
2016-01-07T12:54:55.252Z,-3
2016-01-07T12:55:55.176Z,-2.9
2016-01-07T12:56:55.116Z,-2.9
2016-01-07T12:57:55.056Z,-2.9
2016-01-07T12:58:54.997Z,-3
2016-01-07T12:59:54.921Z,-3
2016-01-07T13:00:54.862Z,-3
2016-01-07T13:01:54.802Z,-2.9
2016-01-07T13:02:54.758Z,-2.9
2016-01-07T13:03:54.697Z,-2.9
2016-01-07T13:04:54.623Z,-2.9
2016-01-07T13:05:54.578Z,-2.9
2016-01-07T13:06:54.519Z,-2.9
2016-01-07T13:07:54.443Z,-3
2016-01-07T13:08:54.415Z,-2.9
2016-01-07T13:09:54.323Z,-2.9
2016-01-07T13:10:54.263Z,-2.9
2016-01-07T13:11:54.235Z,-2.9
2016-01-07T13:12:54.144Z,-2.9
2016-01-07T13:13:54.099Z,-2.9
2016-01-07T13:14:54.040Z,-2.9
2016-01-07T13:15:53.965Z,-3
2016-01-07T13:16:53.921Z,-3
2016-01-07T13:17:53.846Z,-3.1
2016-01-07T13:18:53.785Z,-3
2016-01-07T13:19:53.741Z,-3
2016-01-07T13:20:53.681Z,-3
2016-01-07T13:21:53.621Z,-3
2016-01-07T13:22:53.562Z,-3